createdAt,value
2018-09-26T00:00:50.899Z,1030.03
2018-09-26T00:01:50.863Z,1030.05
2018-09-26T00:02:50.827Z,1030.09
2018-09-26T00:03:50.804Z,1030.11
2018-09-26T00:04:50.757Z,1030.07
2018-09-26T00:05:50.723Z,1030.11
2018-09-26T00:06:50.692Z,1030.10
2018-09-26T00:07:50.655Z,1030.11
2018-09-26T00:08:50.624Z,1030.14
2018-09-26T00:09:50.579Z,1030.13
2018-09-26T00:10:50.543Z,1030.08
2018-09-26T00:11:50.507Z,1030.01
2018-09-26T00:12:50.471Z,1030.03
2018-09-26T00:13:50.445Z,1030.02
2018-09-26T00:14:50.400Z,1029.98
2018-09-26T00:15:50.364Z,1029.98
2018-09-26T00:16:50.331Z,1029.88
2018-09-26T00:17:50.296Z,1029.89
2018-09-26T00:18:50.268Z,1029.83
2018-09-26T00:19:50.222Z,1029.73
2018-09-26T00:20:50.186Z,1029.72
2018-09-26T00:21:50.154Z,1029.71
2018-09-26T00:22:50.115Z,1029.59
2018-09-26T00:23:50.101Z,1029.58
2018-09-26T00:24:50.044Z,1029.56
2018-09-26T00:25:50.009Z,1029.55
2018-09-26T00:26:49.972Z,1029.54
2018-09-26T00:27:49.937Z,1029.58
2018-09-26T00:28:49.903Z,1029.57
2018-09-26T00:29:49.877Z,1029.57
2018-09-26T00:30:49.832Z,1029.58
2018-09-26T00:31:49.807Z,1029.59
2018-09-26T00:32:49.766Z,1029.62
2018-09-26T00:33:49.725Z,1029.62
2018-09-26T00:34:49.697Z,1029.62
2018-09-26T00:35:49.663Z,1029.61
2018-09-26T00:36:49.616Z,1029.65
2018-09-26T00:37:49.586Z,1029.66
2018-09-26T00:38:49.543Z,1029.65
2018-09-26T00:39:49.518Z,1029.69
2018-09-26T00:40:49.475Z,1029.65
2018-09-26T00:41:49.439Z,1029.61
2018-09-26T00:42:49.406Z,1029.65
2018-09-26T00:43:49.447Z,1029.61
2018-09-26T00:44:49.352Z,1029.65
2018-09-26T00:45:49.297Z,1029.65
2018-09-26T00:46:49.262Z,1029.66
2018-09-26T00:47:49.227Z,1029.65
2018-09-26T00:48:49.188Z,1029.62
2018-09-26T00:49:49.153Z,1029.67
2018-09-26T00:50:49.125Z,1029.59
2018-09-26T00:51:49.083Z,1029.59
2018-09-26T00:52:49.051Z,1029.55
2018-09-26T00:53:49.011Z,1029.54
2018-09-26T00:54:48.975Z,1029.56
2018-09-26T00:55:48.949Z,1029.52
2018-09-26T00:56:48.907Z,1029.50
2018-09-26T00:57:48.869Z,1029.50
2018-09-26T00:58:48.835Z,1029.55
2018-09-26T00:59:48.795Z,1029.50
2018-09-26T01:00:48.770Z,1029.53
2018-09-26T01:01:48.727Z,1029.53
2018-09-26T01:02:48.690Z,1029.52
2018-09-26T01:03:48.654Z,1029.50
2018-09-26T01:04:48.617Z,1029.52
2018-09-26T01:05:48.595Z,1029.53
2018-09-26T01:06:48.547Z,1029.53
2018-09-26T01:07:48.513Z,1029.47
2018-09-26T01:08:48.480Z,1029.43
2018-09-26T01:09:48.441Z,1029.33
2018-09-26T01:10:48.416Z,1029.25
2018-09-26T01:11:48.370Z,1029.26
2018-09-26T01:12:48.335Z,1029.26
2018-09-26T01:13:48.297Z,1029.20
2018-09-26T01:14:48.261Z,1029.27
2018-09-26T01:15:48.250Z,1029.21
2018-09-26T01:16:48.191Z,1029.22
2018-09-26T01:17:48.156Z,1029.20
2018-09-26T01:18:48.123Z,1029.20
2018-09-26T01:19:48.084Z,1029.15
2018-09-26T01:20:48.048Z,1029.14
2018-09-26T01:21:48.020Z,1029.18
2018-09-26T01:22:47.977Z,1029.10
2018-09-26T01:23:47.941Z,1029.14
2018-09-26T01:24:47.905Z,1029.12
2018-09-26T01:25:47.872Z,1029.13
2018-09-26T01:26:47.881Z,1029.11
2018-09-26T01:27:47.798Z,1029.04
2018-09-26T01:28:47.765Z,1029.07
2018-09-26T01:29:47.728Z,1029.06
2018-09-26T01:30:47.691Z,1029.04
2018-09-26T01:31:47.662Z,1029.04
2018-09-26T01:32:47.621Z,1028.98
2018-09-26T01:33:47.587Z,1028.99
2018-09-26T01:34:47.553Z,1028.97
2018-09-26T01:35:47.514Z,1029.00
2018-09-26T01:36:47.492Z,1028.97
2018-09-26T01:37:47.443Z,1028.97
2018-09-26T01:38:47.406Z,1028.95
2018-09-26T01:39:47.370Z,1028.98
2018-09-26T01:40:47.335Z,1028.96
2018-09-26T01:41:47.299Z,1029.01
2018-09-26T01:42:47.271Z,1029.02
2018-09-26T01:43:47.232Z,1029.07
2018-09-26T01:44:47.192Z,1029.10
2018-09-26T01:45:47.156Z,1029.10
2018-09-26T01:46:47.122Z,1029.08
2018-09-26T01:47:47.100Z,1029.06
2018-09-26T01:48:47.054Z,1029.03
2018-09-26T01:49:47.015Z,1029.02
2018-09-26T01:50:46.977Z,1029.02
2018-09-26T01:51:46.943Z,1028.98
2018-09-26T01:52:46.917Z,1029.02
2018-09-26T01:53:46.872Z,1029.03
2018-09-26T01:54:46.836Z,1029.02
2018-09-26T01:55:46.799Z,1029.04
2018-09-26T01:56:46.768Z,1029.00
2018-09-26T01:57:46.738Z,1028.99
2018-09-26T01:58:46.694Z,1028.97
2018-09-26T01:59:46.657Z,1028.90
2018-09-26T02:00:46.626Z,1028.83
2018-09-26T02:01:46.594Z,1028.86
2018-09-26T02:02:46.560Z,1028.85
2018-09-26T02:03:46.516Z,1028.87
2018-09-26T02:04:46.481Z,1028.93
2018-09-26T02:05:46.444Z,1028.93
2018-09-26T02:06:46.411Z,1028.86
2018-09-26T02:07:46.382Z,1028.85
2018-09-26T02:08:46.338Z,1028.87
2018-09-26T02:09:46.304Z,1028.89
2018-09-26T02:10:46.267Z,1028.94
2018-09-26T02:11:46.230Z,1028.92
2018-09-26T02:12:46.237Z,1028.92
2018-09-26T02:13:46.165Z,1028.90
2018-09-26T02:14:46.123Z,1028.83
2018-09-26T02:15:46.090Z,1028.81
2018-09-26T02:16:46.055Z,1028.80
2018-09-26T02:17:46.019Z,1028.82
2018-09-26T02:18:45.989Z,1028.84
2018-09-26T02:19:45.944Z,1028.85
2018-09-26T02:20:45.912Z,1028.81
2018-09-26T02:21:45.878Z,1028.81
2018-09-26T02:22:45.836Z,1028.79
2018-09-26T02:23:45.879Z,1028.75
2018-09-26T02:24:45.768Z,1028.73
2018-09-26T02:25:45.731Z,1028.73
2018-09-26T02:26:45.695Z,1028.74
2018-09-26T02:27:45.658Z,1028.78
2018-09-26T02:28:45.633Z,1028.81
2018-09-26T02:29:45.592Z,1028.84
2018-09-26T02:30:45.552Z,1028.87
2018-09-26T02:31:45.518Z,1028.83
2018-09-26T02:32:45.481Z,1028.81
2018-09-26T02:33:45.456Z,1028.71
2018-09-26T02:34:45.408Z,1028.60
2018-09-26T02:35:45.374Z,1028.54
2018-09-26T02:36:45.344Z,1028.56
2018-09-26T02:37:45.306Z,1028.56
2018-09-26T02:38:45.288Z,1028.59
2018-09-26T02:39:45.240Z,1028.62
2018-09-26T02:40:45.196Z,1028.62
2018-09-26T02:41:45.157Z,1028.62
2018-09-26T02:42:45.122Z,1028.58
2018-09-26T02:43:45.088Z,1028.58
2018-09-26T02:44:45.063Z,1028.54
2018-09-26T02:45:45.015Z,1028.59
2018-09-26T02:46:44.985Z,1028.63
2018-09-26T02:47:44.943Z,1028.67
2018-09-26T02:48:44.908Z,1028.71
2018-09-26T02:49:44.882Z,1028.77
2018-09-26T02:50:44.836Z,1028.77
2018-09-26T02:51:44.799Z,1028.79
2018-09-26T02:52:44.765Z,1028.77
2018-09-26T02:53:44.731Z,1028.73
2018-09-26T02:54:44.700Z,1028.65
2018-09-26T02:55:44.710Z,1028.66
2018-09-26T02:56:44.620Z,1028.67
2018-09-26T02:57:44.585Z,1028.65
2018-09-26T02:58:44.547Z,1028.54
2018-09-26T02:59:44.520Z,1028.52
2018-09-26T03:00:44.526Z,1028.50
2018-09-26T03:01:44.444Z,1028.48
2018-09-26T03:02:44.403Z,1028.49
2018-09-26T03:03:44.372Z,1028.53
2018-09-26T03:04:44.345Z,1028.53
2018-09-26T03:05:44.298Z,1028.56
2018-09-26T03:06:44.262Z,1028.55
2018-09-26T03:07:44.224Z,1028.53
2018-09-26T03:08:44.193Z,1028.51
2018-09-26T03:09:44.158Z,1028.51
2018-09-26T03:10:44.151Z,1028.55
2018-09-26T03:11:44.081Z,1028.49
2018-09-26T03:12:44.047Z,1028.49
2018-09-26T03:13:44.010Z,1028.38
2018-09-26T03:14:43.981Z,1028.38
2018-09-26T03:15:43.942Z,1028.37
2018-09-26T03:16:43.900Z,1028.37
2018-09-26T03:17:43.900Z,1028.42
2018-09-26T03:18:43.828Z,1028.46
2018-09-26T03:19:43.801Z,1028.42
2018-09-26T03:20:43.760Z,1028.44
2018-09-26T03:21:43.722Z,1028.46
2018-09-26T03:22:43.684Z,1028.44
2018-09-26T03:23:43.651Z,1028.44
2018-09-26T03:24:43.632Z,1028.49
2018-09-26T03:25:43.578Z,1028.54
2018-09-26T03:26:43.540Z,1028.56
2018-09-26T03:27:43.505Z,1028.59
2018-09-26T03:28:43.470Z,1028.62
2018-09-26T03:29:43.435Z,1028.67
2018-09-26T03:30:43.422Z,1028.63
2018-09-26T03:31:43.363Z,1028.57
2018-09-26T03:32:43.325Z,1028.56
2018-09-26T03:33:43.307Z,1028.58
2018-09-26T03:34:43.253Z,1028.58
2018-09-26T03:35:43.233Z,1028.58
2018-09-26T03:36:43.182Z,1028.63
2018-09-26T03:37:43.148Z,1028.61
2018-09-26T03:38:43.112Z,1028.61
2018-09-26T03:39:43.078Z,1028.56
2018-09-26T03:40:43.046Z,1028.61
2018-09-26T03:41:43.001Z,1028.57
2018-09-26T03:42:42.965Z,1028.65
2018-09-26T03:43:42.931Z,1028.60
2018-09-26T03:44:42.898Z,1028.60
2018-09-26T03:45:42.867Z,1028.52
2018-09-26T03:46:42.821Z,1028.43
2018-09-26T03:47:42.788Z,1028.43
2018-09-26T03:48:42.749Z,1028.35
2018-09-26T03:49:42.714Z,1028.37
2018-09-26T03:50:42.690Z,1028.36
2018-09-26T03:51:42.641Z,1028.32
2018-09-26T03:52:42.607Z,1028.30
2018-09-26T03:53:42.569Z,1028.30
2018-09-26T03:54:42.533Z,1028.29
2018-09-26T03:55:42.505Z,1028.33
2018-09-26T03:56:42.524Z,1028.36
2018-09-26T03:57:42.427Z,1028.37
2018-09-26T03:58:42.395Z,1028.35
2018-09-26T03:59:42.355Z,1028.35
2018-09-26T04:00:42.343Z,1028.33
2018-09-26T04:01:42.282Z,1028.33
2018-09-26T04:02:42.245Z,1028.33
2018-09-26T04:03:42.209Z,1028.34
2018-09-26T04:04:42.178Z,1028.32
2018-09-26T04:05:42.136Z,1028.23
2018-09-26T04:06:42.112Z,1028.25
2018-09-26T04:07:42.065Z,1028.16
2018-09-26T04:08:42.030Z,1028.13
2018-09-26T04:09:41.994Z,1028.16
2018-09-26T04:10:41.985Z,1028.21
2018-09-26T04:11:41.930Z,1028.17
2018-09-26T04:12:41.898Z,1028.19
2018-09-26T04:13:41.849Z,1028.17
2018-09-26T04:14:41.812Z,1028.14
2018-09-26T04:15:41.791Z,1028.10
2018-09-26T04:16:41.748Z,1028.10
2018-09-26T04:17:41.709Z,1028.08
2018-09-26T04:18:41.700Z,1028.13
2018-09-26T04:19:41.634Z,1028.07
2018-09-26T04:20:41.599Z,1028.01
2018-09-26T04:21:41.585Z,1028.08
2018-09-26T04:22:41.522Z,1028.09
2018-09-26T04:23:41.490Z,1028.12
2018-09-26T04:24:41.452Z,1028.09
2018-09-26T04:25:41.416Z,1028.11
2018-09-26T04:26:41.563Z,1028.11
2018-09-26T04:27:41.411Z,1028.14
2018-09-26T04:28:41.319Z,1028.14
2018-09-26T04:29:41.284Z,1028.11
2018-09-26T04:30:41.240Z,1028.09
2018-09-26T04:31:41.198Z,1028.07
2018-09-26T04:32:41.311Z,1028.07
2018-09-26T04:33:41.215Z,1028.04
2018-09-26T04:34:41.089Z,1028.03
2018-09-26T04:35:41.053Z,1027.98
2018-09-26T04:36:41.017Z,1028.02
2018-09-26T04:37:40.991Z,1027.99
2018-09-26T04:38:41.082Z,1028.04
2018-09-26T04:39:40.909Z,1028.09
2018-09-26T04:40:40.872Z,1028.05
2018-09-26T04:41:40.845Z,1028.05
2018-09-26T04:42:40.806Z,1028.06
2018-09-26T04:43:40.763Z,1028.07
2018-09-26T04:44:40.727Z,1028.07
2018-09-26T04:45:40.694Z,1028.10
2018-09-26T04:46:40.652Z,1028.11
2018-09-26T04:47:40.631Z,1028.14
2018-09-26T04:48:40.581Z,1028.13
2018-09-26T04:49:40.545Z,1028.09
2018-09-26T04:50:40.548Z,1028.06
2018-09-26T04:51:40.472Z,1028.01
2018-09-26T04:52:40.446Z,1028.02
2018-09-26T04:53:40.403Z,1028.00
2018-09-26T04:54:40.365Z,1028.00
2018-09-26T04:55:40.327Z,1027.96
2018-09-26T04:56:40.319Z,1027.98
2018-09-26T04:57:40.284Z,1027.98
2018-09-26T04:58:40.218Z,1027.94
2018-09-26T04:59:40.182Z,1027.97
2018-09-26T05:00:40.147Z,1028.05
2018-09-26T05:01:40.115Z,1027.99
2018-09-26T05:02:40.075Z,1028.00
2018-09-26T05:03:40.049Z,1028.00
2018-09-26T05:04:40.006Z,1028.01
2018-09-26T05:05:39.964Z,1028.05
2018-09-26T05:06:39.936Z,1028.10
2018-09-26T05:07:39.894Z,1028.07
2018-09-26T05:08:39.863Z,1028.09
2018-09-26T05:09:39.819Z,1028.07
2018-09-26T05:10:39.782Z,1028.04
2018-09-26T05:11:39.749Z,1028.04
2018-09-26T05:12:39.711Z,1028.07
2018-09-26T05:13:39.681Z,1028.08
2018-09-26T05:14:39.689Z,1028.12
2018-09-26T05:15:39.601Z,1028.08
2018-09-26T05:16:39.567Z,1028.06
2018-09-26T05:17:39.529Z,1028.00
2018-09-26T05:18:39.508Z,1028.00
2018-09-26T05:19:39.457Z,1027.95
2018-09-26T05:20:39.421Z,1027.94
2018-09-26T05:21:39.384Z,1027.96
2018-09-26T05:22:39.398Z,1027.97
2018-09-26T05:23:39.321Z,1028.06
2018-09-26T05:24:39.278Z,1028.08
2018-09-26T05:25:39.240Z,1028.06
2018-09-26T05:26:39.202Z,1028.10
2018-09-26T05:27:39.167Z,1028.08
2018-09-26T05:28:39.153Z,1028.11
2018-09-26T05:29:39.095Z,1028.12
2018-09-26T05:30:39.058Z,1028.04
2018-09-26T05:31:39.022Z,1028.09
2018-09-26T05:32:38.988Z,1028.14
2018-09-26T05:33:38.954Z,1028.15
2018-09-26T05:34:38.921Z,1028.12
2018-09-26T05:35:38.877Z,1028.16
2018-09-26T05:36:38.845Z,1028.14
2018-09-26T05:37:38.808Z,1028.16
2018-09-26T05:38:38.768Z,1028.10
2018-09-26T05:39:38.752Z,1028.09
2018-09-26T05:40:38.698Z,1028.10
2018-09-26T05:41:38.693Z,1028.05
2018-09-26T05:42:38.624Z,1028.01
2018-09-26T05:43:38.587Z,1027.99
2018-09-26T05:44:38.562Z,1027.99
2018-09-26T05:45:38.521Z,1028.00
2018-09-26T05:46:38.479Z,1028.01
2018-09-26T05:47:38.444Z,1027.92
2018-09-26T05:48:38.410Z,1027.94
2018-09-26T05:49:38.381Z,1027.96
2018-09-26T05:50:38.335Z,1027.97
2018-09-26T05:51:38.303Z,1027.98
2018-09-26T05:52:38.266Z,1027.94
2018-09-26T05:53:38.226Z,1027.98
2018-09-26T05:54:38.206Z,1028.00
2018-09-26T05:55:38.155Z,1028.04
2018-09-26T05:56:38.119Z,1028.06
2018-09-26T05:57:38.085Z,1028.08
2018-09-26T05:58:38.047Z,1028.07
2018-09-26T05:59:38.051Z,1028.07
2018-09-26T06:00:37.994Z,1028.11
2018-09-26T06:01:37.939Z,1028.05
2018-09-26T06:02:37.908Z,1028.00
2018-09-26T06:03:37.868Z,1027.99
2018-09-26T06:04:37.859Z,1028.04
2018-09-26T06:05:37.795Z,1028.01
2018-09-26T06:06:37.763Z,1028.05
2018-09-26T06:07:37.724Z,1028.04
2018-09-26T06:08:37.694Z,1027.98
2018-09-26T06:09:37.654Z,1027.93
2018-09-26T06:10:37.624Z,1027.85
2018-09-26T06:11:37.588Z,1027.85
2018-09-26T06:12:37.552Z,1027.89
2018-09-26T06:13:37.509Z,1027.90
2018-09-26T06:14:37.471Z,1027.92
2018-09-26T06:15:37.444Z,1027.92
2018-09-26T06:16:37.406Z,1027.91
2018-09-26T06:17:37.365Z,1027.82
2018-09-26T06:18:37.330Z,1027.78
2018-09-26T06:19:37.293Z,1027.70
2018-09-26T06:20:37.267Z,1027.74
2018-09-26T06:21:37.227Z,1027.76
2018-09-26T06:22:37.187Z,1027.77
2018-09-26T06:23:37.150Z,1027.76
2018-09-26T06:24:37.137Z,1027.72
2018-09-26T06:25:37.087Z,1027.68
2018-09-26T06:26:37.046Z,1027.69
2018-09-26T06:27:37.007Z,1027.76
2018-09-26T06:28:36.973Z,1027.75
2018-09-26T06:29:36.941Z,1027.80
2018-09-26T06:30:36.916Z,1027.79
2018-09-26T06:31:36.868Z,1027.74
2018-09-26T06:32:36.828Z,1027.65
2018-09-26T06:33:36.795Z,1027.58
2018-09-26T06:34:36.762Z,1027.61
2018-09-26T06:35:36.723Z,1027.62
2018-09-26T06:36:36.700Z,1027.70
2018-09-26T06:37:36.654Z,1027.72
2018-09-26T06:38:36.626Z,1027.70
2018-09-26T06:39:36.585Z,1027.75
2018-09-26T06:40:36.642Z,1027.76
2018-09-26T06:41:36.539Z,1027.75
2018-09-26T06:42:36.479Z,1027.76
2018-09-26T06:43:36.470Z,1027.76
2018-09-26T06:44:36.408Z,1027.77
2018-09-26T06:45:36.375Z,1027.77
2018-09-26T06:46:36.344Z,1027.75
2018-09-26T06:47:36.382Z,1027.70
2018-09-26T06:48:36.269Z,1027.66
2018-09-26T06:49:36.234Z,1027.66
2018-09-26T06:50:36.199Z,1027.64
2018-09-26T06:51:36.165Z,1027.70
2018-09-26T06:52:36.135Z,1027.72
2018-09-26T06:53:36.098Z,1027.73
2018-09-26T06:54:36.056Z,1027.71
2018-09-26T06:55:36.023Z,1027.67
2018-09-26T06:56:35.992Z,1027.71
2018-09-26T06:57:35.963Z,1027.75
2018-09-26T06:58:35.920Z,1027.72
2018-09-26T06:59:35.884Z,1027.72
2018-09-26T07:00:35.850Z,1027.77
2018-09-26T07:01:35.815Z,1027.76
2018-09-26T07:02:35.781Z,1027.78
2018-09-26T07:03:35.754Z,1027.78
2018-09-26T07:04:35.714Z,1027.77
2018-09-26T07:05:35.684Z,1027.74
2018-09-26T07:06:35.643Z,1027.72
2018-09-26T07:07:35.608Z,1027.79
2018-09-26T07:08:35.587Z,1027.80
2018-09-26T07:09:35.540Z,1027.85
2018-09-26T07:10:35.505Z,1027.85
2018-09-26T07:11:35.471Z,1027.88
2018-09-26T07:12:35.440Z,1027.89
2018-09-26T07:13:35.426Z,1027.85
2018-09-26T07:14:35.366Z,1027.90
2018-09-26T07:15:35.335Z,1027.87
2018-09-26T07:16:35.298Z,1027.89
2018-09-26T07:17:35.264Z,1027.85
2018-09-26T07:18:35.229Z,1027.85
2018-09-26T07:19:35.215Z,1027.84
2018-09-26T07:20:35.161Z,1027.82
2018-09-26T07:21:35.127Z,1027.86
2018-09-26T07:22:35.092Z,1027.82
2018-09-26T07:23:35.062Z,1027.82
2018-09-26T07:24:35.033Z,1027.83
2018-09-26T07:25:34.992Z,1027.83
2018-09-26T07:26:34.956Z,1027.85
2018-09-26T07:27:34.923Z,1027.88
2018-09-26T07:28:34.889Z,1027.84
2018-09-26T07:29:34.863Z,1027.92
2018-09-26T07:30:34.827Z,1027.87
2018-09-26T07:31:34.806Z,1027.89
2018-09-26T07:32:34.755Z,1027.86
2018-09-26T07:33:34.721Z,1027.80
2018-09-26T07:34:34.695Z,1027.77
2018-09-26T07:35:34.653Z,1027.79
2018-09-26T07:36:34.626Z,1027.82
2018-09-26T07:37:34.589Z,1027.84
2018-09-26T07:38:34.620Z,1027.80
2018-09-26T07:39:34.541Z,1027.85
2018-09-26T07:40:34.484Z,1027.86
2018-09-26T07:41:34.453Z,1027.85
2018-09-26T07:42:34.421Z,1027.86
2018-09-26T07:43:34.401Z,1027.86
2018-09-26T07:44:34.350Z,1027.85
2018-09-26T07:45:34.344Z,1027.82
2018-09-26T07:46:34.281Z,1027.86
2018-09-26T07:47:34.248Z,1027.85
2018-09-26T07:48:34.217Z,1027.84
2018-09-26T07:49:34.186Z,1027.83
2018-09-26T07:50:34.157Z,1027.83
2018-09-26T07:51:34.116Z,1027.77
2018-09-26T07:52:34.081Z,1027.77
2018-09-26T07:53:34.049Z,1027.76
2018-09-26T07:54:34.021Z,1027.75
2018-09-26T07:55:33.997Z,1027.76
2018-09-26T07:56:33.951Z,1027.81
2018-09-26T07:57:33.917Z,1027.81
2018-09-26T07:58:33.884Z,1027.79
2018-09-26T07:59:33.850Z,1027.88
2018-09-26T08:00:33.839Z,1027.86
2018-09-26T08:01:33.793Z,1027.82
2018-09-26T08:02:33.751Z,1027.87
2018-09-26T08:03:33.721Z,1027.82
2018-09-26T08:04:33.687Z,1027.81
2018-09-26T08:05:33.650Z,1027.74
2018-09-26T08:06:33.624Z,1027.80
2018-09-26T08:07:33.588Z,1027.76
2018-09-26T08:08:33.552Z,1027.78
2018-09-26T08:09:33.518Z,1027.78
2018-09-26T08:10:33.484Z,1027.77
2018-09-26T08:11:33.522Z,1027.79
2018-09-26T08:12:33.422Z,1027.85
2018-09-26T08:13:33.388Z,1027.86
2018-09-26T08:14:33.361Z,1027.78
2018-09-26T08:15:33.322Z,1027.84
2018-09-26T08:16:33.296Z,1027.85
2018-09-26T08:17:33.259Z,1027.89
2018-09-26T08:18:33.236Z,1027.85
2018-09-26T08:19:33.190Z,1027.85
2018-09-26T08:20:33.159Z,1027.88
2018-09-26T08:21:33.139Z,1027.95
2018-09-26T08:22:33.092Z,1027.89
2018-09-26T08:23:33.102Z,1027.98
2018-09-26T08:24:33.027Z,1028.00
2018-09-26T08:25:32.998Z,1028.00
2018-09-26T08:26:32.973Z,1027.99
2018-09-26T08:27:32.941Z,1028.06
2018-09-26T08:28:32.897Z,1028.03
2018-09-26T08:29:32.861Z,1028.07
2018-09-26T08:30:32.834Z,1028.07
2018-09-26T08:31:32.801Z,1028.09
2018-09-26T08:32:32.777Z,1028.10
2018-09-26T08:33:32.741Z,1028.12
2018-09-26T08:34:32.703Z,1028.07
2018-09-26T08:35:32.669Z,1028.12
2018-09-26T08:36:32.637Z,1028.17
2018-09-26T08:37:32.611Z,1028.23
2018-09-26T08:38:32.572Z,1028.23
2018-09-26T08:39:32.540Z,1028.20
2018-09-26T08:40:32.509Z,1028.25
2018-09-26T08:41:32.477Z,1028.22
2018-09-26T08:42:32.450Z,1028.18
2018-09-26T08:43:32.412Z,1028.22
2018-09-26T08:44:32.378Z,1028.26
2018-09-26T08:45:32.345Z,1028.26
2018-09-26T08:46:32.317Z,1028.24
2018-09-26T08:47:32.302Z,1028.22
2018-09-26T08:48:32.252Z,1028.22
2018-09-26T08:49:32.227Z,1028.20
2018-09-26T08:50:32.184Z,1028.18
2018-09-26T08:51:32.153Z,1028.11
2018-09-26T08:52:32.124Z,1028.13
2018-09-26T08:53:32.104Z,1028.12
2018-09-26T08:54:32.057Z,1028.16
2018-09-26T08:55:32.027Z,1028.21
2018-09-26T08:56:31.996Z,1028.11
2018-09-26T08:57:31.964Z,1028.11
2018-09-26T08:58:31.937Z,1028.13
2018-09-26T08:59:31.913Z,1028.11
2018-09-26T09:00:31.866Z,1028.11
2018-09-26T09:01:31.847Z,1028.19
2018-09-26T09:02:31.803Z,1028.14
2018-09-26T09:03:31.783Z,1028.12
2018-09-26T09:04:31.743Z,1028.12
2018-09-26T09:05:31.709Z,1028.12
2018-09-26T09:06:31.675Z,1028.05
2018-09-26T09:07:31.645Z,1028.03
2018-09-26T09:08:31.621Z,1028.09
2018-09-26T09:09:31.582Z,1028.06
2018-09-26T09:10:31.550Z,1028.04
2018-09-26T09:11:31.577Z,1028.01
2018-09-26T09:12:31.488Z,1028.04
2018-09-26T09:13:31.471Z,1028.04
2018-09-26T09:14:31.440Z,1028.05
2018-09-26T09:15:31.393Z,1028.10
2018-09-26T09:16:31.360Z,1028.08
2018-09-26T09:17:31.327Z,1028.08
2018-09-26T09:18:31.298Z,1028.06
2018-09-26T09:19:31.277Z,1028.07
2018-09-26T09:20:31.234Z,1028.07
2018-09-26T09:21:31.202Z,1028.09
2018-09-26T09:22:31.172Z,1028.09
2018-09-26T09:23:31.141Z,1028.09
2018-09-26T09:24:31.118Z,1028.11
2018-09-26T09:25:31.077Z,1028.13
2018-09-26T09:26:31.050Z,1028.11
2018-09-26T09:27:31.027Z,1028.13
2018-09-26T09:28:30.983Z,1028.10
2018-09-26T09:29:30.964Z,1028.12
2018-09-26T09:30:30.920Z,1028.14
2018-09-26T09:31:30.889Z,1028.12
2018-09-26T09:32:30.861Z,1028.17
2018-09-26T09:33:30.829Z,1028.14
2018-09-26T09:34:30.822Z,1028.08
2018-09-26T09:35:30.766Z,1028.16
2018-09-26T09:36:30.744Z,1028.13
2018-09-26T09:37:30.703Z,1028.12
2018-09-26T09:38:30.671Z,1028.14
2018-09-26T09:39:30.641Z,1028.09
2018-09-26T09:40:30.619Z,1028.04
2018-09-26T09:41:30.578Z,1028.03
2018-09-26T09:42:30.552Z,1028.01
2018-09-26T09:43:30.516Z,1028.00
2018-09-26T09:44:30.533Z,1028.09
2018-09-26T09:45:30.474Z,1027.97
2018-09-26T09:46:30.424Z,1028.01
2018-09-26T09:47:30.393Z,1028.00
2018-09-26T09:48:30.363Z,1027.99
2018-09-26T09:49:30.333Z,1027.96
2018-09-26T09:50:30.309Z,1027.93
2018-09-26T09:51:30.302Z,1027.91
2018-09-26T09:52:30.239Z,1027.95
2018-09-26T09:53:30.216Z,1027.94
2018-09-26T09:54:30.176Z,1027.89
2018-09-26T09:55:30.162Z,1027.90
2018-09-26T09:56:30.117Z,1027.88
2018-09-26T09:57:30.085Z,1027.88
2018-09-26T09:58:30.057Z,1027.92
2018-09-26T09:59:30.029Z,1027.89
2018-09-26T10:00:30.011Z,1027.88
2018-09-26T10:01:29.959Z,1027.92
2018-09-26T10:02:29.944Z,1027.95
2018-09-26T10:03:29.901Z,1027.90
2018-09-26T10:04:29.866Z,1027.87
2018-09-26T10:05:29.842Z,1027.88
2018-09-26T10:06:29.818Z,1027.89
2018-09-26T10:07:29.787Z,1027.85
2018-09-26T10:08:29.749Z,1027.85
2018-09-26T10:09:29.716Z,1027.85
2018-09-26T10:10:29.685Z,1027.80
2018-09-26T10:11:29.671Z,1027.86
2018-09-26T10:12:29.626Z,1027.85
2018-09-26T10:13:29.594Z,1027.87
2018-09-26T10:14:29.649Z,1027.83
2018-09-26T10:15:30.178Z,1027.85
2018-09-26T10:16:29.508Z,1027.87
2018-09-26T10:17:29.502Z,1027.79
2018-09-26T10:18:29.443Z,1027.81
2018-09-26T10:19:29.409Z,1027.77
2018-09-26T10:20:29.381Z,1027.77
2018-09-26T10:21:29.361Z,1027.78
2018-09-26T10:22:29.317Z,1027.75
2018-09-26T10:23:29.285Z,1027.75
2018-09-26T10:24:29.256Z,1027.75
2018-09-26T10:25:29.230Z,1027.79
2018-09-26T10:26:29.198Z,1027.78
2018-09-26T10:27:29.173Z,1027.73
2018-09-26T10:28:29.133Z,1027.79
2018-09-26T10:29:29.104Z,1027.67
2018-09-26T10:30:29.075Z,1027.69
2018-09-26T10:31:29.042Z,1027.71
2018-09-26T10:32:29.023Z,1027.70
2018-09-26T10:33:29.005Z,1027.70
2018-09-26T10:34:28.953Z,1027.69
2018-09-26T10:35:28.929Z,1027.70
2018-09-26T10:36:28.903Z,1027.68
2018-09-26T10:37:28.932Z,1027.70
2018-09-26T10:38:28.833Z,1027.70
2018-09-26T10:39:28.806Z,1027.67
2018-09-26T10:40:28.771Z,1027.65
2018-09-26T10:41:28.742Z,1027.67
2018-09-26T10:42:28.718Z,1027.68
2018-09-26T10:43:28.680Z,1027.68
2018-09-26T10:44:28.648Z,1027.65
2018-09-26T10:45:28.618Z,1027.64
2018-09-26T10:46:28.639Z,1027.63
2018-09-26T10:47:28.569Z,1027.60
2018-09-26T10:48:28.730Z,1027.62
2018-09-26T10:49:28.498Z,1027.65
2018-09-26T10:50:28.468Z,1027.60
2018-09-26T10:51:28.435Z,1027.65
2018-09-26T10:52:28.409Z,1027.66
2018-09-26T10:53:28.396Z,1027.64
2018-09-26T10:54:28.345Z,1027.60
2018-09-26T10:55:28.317Z,1027.63
2018-09-26T10:56:28.420Z,1027.63
2018-09-26T10:57:28.257Z,1027.60
2018-09-26T10:58:28.235Z,1027.59
2018-09-26T10:59:28.195Z,1027.56
2018-09-26T11:00:28.174Z,1027.54
2018-09-26T11:01:28.136Z,1027.51
2018-09-26T11:02:28.178Z,1027.53
2018-09-26T11:03:28.089Z,1027.55
2018-09-26T11:04:28.048Z,1027.45
2018-09-26T11:05:28.012Z,1027.45
2018-09-26T11:06:27.996Z,1027.49
2018-09-26T11:07:27.953Z,1027.49
2018-09-26T11:08:27.944Z,1027.43
2018-09-26T11:09:27.896Z,1027.44
2018-09-26T11:10:27.969Z,1027.46
2018-09-26T11:11:27.832Z,1027.43
2018-09-26T11:12:27.848Z,1027.46
2018-09-26T11:13:27.772Z,1027.45
2018-09-26T11:14:27.750Z,1027.39
2018-09-26T11:15:27.756Z,1027.43
2018-09-26T11:16:27.777Z,1027.39
2018-09-26T11:17:27.656Z,1027.34
2018-09-26T11:18:27.627Z,1027.32
2018-09-26T11:19:27.610Z,1027.31
2018-09-26T11:20:27.563Z,1027.34
2018-09-26T11:21:27.533Z,1027.33
2018-09-26T11:22:27.499Z,1027.29
2018-09-26T11:23:27.479Z,1027.28
2018-09-26T11:24:27.451Z,1027.32
2018-09-26T11:25:27.412Z,1027.24
2018-09-26T11:26:27.416Z,1027.21
2018-09-26T11:27:27.350Z,1027.19
2018-09-26T11:28:27.385Z,1027.19
2018-09-26T11:29:27.304Z,1027.16
2018-09-26T11:30:27.262Z,1027.12
2018-09-26T11:31:27.231Z,1027.13
2018-09-26T11:32:27.327Z,1027.13
2018-09-26T11:33:27.228Z,1027.14
2018-09-26T11:34:27.256Z,1027.14
2018-09-26T11:35:27.109Z,1027.12
2018-09-26T11:36:27.601Z,1027.15
2018-09-26T11:37:27.049Z,1027.11
2018-09-26T11:38:27.080Z,1027.11
2018-09-26T11:39:26.989Z,1027.07
2018-09-26T11:40:26.977Z,1027.06
2018-09-26T11:41:26.931Z,1027.05
2018-09-26T11:42:26.902Z,1027.12
2018-09-26T11:43:26.898Z,1027.08
2018-09-26T11:44:26.860Z,1027.10
2018-09-26T11:45:26.825Z,1027.09
2018-09-26T11:46:26.794Z,1027.07
2018-09-26T11:47:26.754Z,1027.05
2018-09-26T11:48:26.721Z,1027.04
2018-09-26T11:49:26.686Z,1027.02
2018-09-26T11:50:26.716Z,1027.03
2018-09-26T11:51:26.630Z,1026.96
2018-09-26T11:52:26.663Z,1027.00
2018-09-26T11:53:26.570Z,1027.00
2018-09-26T11:54:26.541Z,1026.99
2018-09-26T11:55:26.528Z,1026.98
2018-09-26T11:56:26.505Z,1027.03
2018-09-26T11:57:26.453Z,1026.98
2018-09-26T11:58:26.498Z,1027.03
2018-09-26T11:59:26.389Z,1026.99
2018-09-26T12:00:26.362Z,1026.90
2018-09-26T12:01:26.344Z,1026.90
2018-09-26T12:02:26.342Z,1026.87
2018-09-26T12:03:26.269Z,1026.87
2018-09-26T12:04:26.313Z,1026.85
2018-09-26T12:05:26.211Z,1026.89